Главная страница
METAR-TAF:

METAR-TAF

Аэропорты :

Хейдрун, Норвегия

широта: 65-19-30N, долгота: 007-19-36E, высота над уровнем моря: 0 м

Текущие метеонаблюдения

Эта сводка был подготовлена 31 минут назад, в 13:50 UTC
Ветер 13 Узел от западный
Температура 12°C
Влажность 76%
Давление 1026 hPa
Видимость 10 км и более
Рассеянная облачность на высоте 2000 фута

METAR: ENHE 091350Z 27013KT 9999 BKN020 12/08 Q1026 W///S4

Время: 16:21 (14:21 UTC)

Прогноз

Эта сводка был подготовлена 3 часа и 21 минут назад, в 11:00 UTC
Прогноз действительный с 09-го 12 UTC до 09-го 21 UTC
Ветер 15 Узел от западный
Видимость 10 км и более
небольшая облачность на высоте 1500 фута
Рассеянная облачность на высоте 2500 фута
изменения
С 09-го 18 UTC до 09-го 20 UTC
Ветер 5 Узел от западный

TAF: ENHE 091100Z 0912/0921 27015KT 9999 FEW015 BKN025 BECMG 0918/0920 27005KT

Метеонаблюдения и прогнозы для более 4000 аэропортов (сводки METAR и TAF).

Имеющиеся станции представлены на карте желтыми и красными точками.

Чтобы увидеть название станции, наведите на нее мышь.

Затем щелкните, чтобы увидеть метеонаблюдения и метеопрогнозы.

Управление картой: чтобы увеличить масштаб, щелкните зеленые кнопки с черным крестиком; чтобы уменьшить масштаб, щелкните зеленую кнопку с тире; для просмотра соседних карт щелкайте зеленые стрелки.


METAR-TAF: